Badlands National Park, SD

10:51 PM MST on February 06, 2016 (GMT -0700)
Cactus Flat | | Change Station
CLOSE
Current Station
Personal Weather Station
Location: South Dakota, SD
Elevation: 2530 ft
Nearby Weather Stations
Active Advisory: High Wind Warning

Elev 2530 ft 43.81 °N, 101.89 °W | Updated 13 seconds ago

Partly Cloudy
Partly Cloudy
38.5 °F
Feels Like 31 °F
N
12.3
Wind Variable Wind from WNW
Gusts 17.4 mph

Today
High -- | Low -- °F
--% Chance of Precip.
Yesterday
High -- | Low -- °F
Precip. -- in
Pressure 30.00 in
Visibility 10.0 miles
Clouds Clear
Windchill 31 °F
Dew Point 22 °F
Humidity 52%
Rainfall 0.00 in
Snow Depth Not available.
6:59 AM 5:05 PM
Waning Crescent, 3% visible
METAR KPHP 070455Z AUTO 29014KT 10SM CLR 04/M04 A2997 RMK AO2 PK WND 30026/0403 SLP158 T00391044
Pressure 30.00 in
Visibility 10.0 miles
Clouds Clear
Windchill 31 °F
Dew Point 22 °F
Humidity 52%
Rainfall 0.00 in
Snow Depth Not available.
6:59 AM 5:05 PM
Waning Crescent, 3% visible
METAR KPHP 070455Z AUTO 29014KT 10SM CLR 04/M04 A2997 RMK AO2 PK WND 30026/0403 SLP158 T00391044

10-Day Weather Forecast

Almanac

Astronomy

Feb. 06, 2016 Rise Set
Actual Time
Civil Twilight
Nautical Twilight
Astronomical Twilight
Moon
Length of Visible Light
Length of Day
Tomorrow will be .
, % of the Moon is Illuminated

Today's Extremes

State Highs State Lows

Community

WunderPhotos

Upload Photos

1,891,167 photos uploaded!

WunderBlog® & News

Nearby

Air Quality

  Air Quality AQ Index Pollutant
Not available.

Snow Depth

Station Depth Elevation

Earthquake Activity

City Distance Mag. Time & Date
Minimum magnitude displayed is 2.5.

Coastal Water Temperatures

Place Temperature

Stations

Nearby Weather Stations

Station Location Temp. Windchill Dew Point Humidity Wind Precip. Elev Updated Type
                   

Watches & Warnings

High Wind Warning
Issued: 8:32 PM CST Feb. 6, 2016 – National Weather Service

... High Wind Warning remains in effect from 11 PM MST /midnight
CST/ this evening to 8 PM MST /9 PM CST/ Sunday...

* timing... late tonight through Sunday evening.

* Winds... northwest winds increasing to 35 to 45 mph with gusts
up to 60 mph.

* Impacts... the high winds can blow down large trees... and
damage roofs... small outbuildings... and signs. Sudden wind
gusts can cause drivers to lose control... especially in
lightweight or high profile vehicles. Strong winds can cause
blowing dust... reduced visibility... and flying debris.